createdAt,value
2024-03-09T00:00:10.609Z,79.91
2024-03-09T00:01:10.640Z,80.32
2024-03-09T00:02:10.729Z,80.43
2024-03-09T00:03:10.579Z,80.46
2024-03-09T00:04:10.557Z,79.94
2024-03-09T00:05:10.589Z,79.91
2024-03-09T00:06:10.521Z,80.15
2024-03-09T00:07:10.507Z,80.11
2024-03-09T00:08:11.173Z,80.15
2024-03-09T00:09:10.482Z,80.46
2024-03-09T00:10:10.542Z,80.77
2024-03-09T00:11:10.532Z,80.88
2024-03-09T00:12:10.485Z,81.19
2024-03-09T00:13:10.423Z,80.88
2024-03-09T00:14:10.463Z,81.19
2024-03-09T00:15:10.401Z,81.09
2024-03-09T00:16:10.503Z,81.19
2024-03-09T00:17:10.490Z,81.40
2024-03-09T00:18:10.423Z,81.19
2024-03-09T00:19:10.434Z,80.98
2024-03-09T00:20:10.336Z,81.19
2024-03-09T00:21:10.430Z,81.65
2024-03-09T00:22:10.298Z,81.71
2024-03-09T00:23:10.609Z,81.81
2024-03-09T00:24:10.289Z,81.71
2024-03-09T00:25:10.257Z,81.40
2024-03-09T00:26:10.339Z,81.43
2024-03-09T00:27:10.231Z,81.96
2024-03-09T00:28:10.216Z,81.71
2024-03-09T00:29:10.331Z,81.81
2024-03-09T00:30:10.191Z,81.19
2024-03-09T00:31:10.180Z,81.85
2024-03-09T00:32:10.194Z,81.75
2024-03-09T00:33:10.204Z,81.75
2024-03-09T00:34:10.137Z,81.60
2024-03-09T00:35:10.282Z,81.71
2024-03-09T00:36:10.110Z,81.96
2024-03-09T00:37:10.103Z,81.60
2024-03-09T00:38:10.112Z,82.17
2024-03-09T00:39:10.060Z,82.13
2024-03-09T00:40:10.105Z,82.06
2024-03-09T00:41:12.761Z,81.96
2024-03-09T00:42:10.031Z,82.06
2024-03-09T00:43:10.002Z,82.06
2024-03-09T00:44:10.011Z,82.06
2024-03-09T00:45:09.985Z,82.17
2024-03-09T00:46:09.958Z,82.06
2024-03-09T00:47:09.981Z,82.58
2024-03-09T00:48:09.969Z,82.17
2024-03-09T00:49:09.927Z,82.37
2024-03-09T00:50:09.971Z,82.58
2024-03-09T00:51:09.892Z,82.27
2024-03-09T00:52:09.973Z,82.68
2024-03-09T00:53:09.934Z,82.68
2024-03-09T00:54:09.856Z,82.68
2024-03-09T00:55:09.831Z,82.89
2024-03-09T00:56:10.056Z,83.10
2024-03-09T00:57:09.807Z,83.42
2024-03-09T00:58:09.793Z,82.89
2024-03-09T00:59:10.838Z,83.42
2024-03-09T01:00:09.760Z,83.10
2024-03-09T01:01:09.818Z,83.10
2024-03-09T01:02:09.794Z,83.52
2024-03-09T01:03:09.726Z,83.10
2024-03-09T01:04:09.709Z,83.20
2024-03-09T01:05:09.805Z,83.31
2024-03-09T01:06:09.672Z,83.35
2024-03-09T01:07:09.662Z,83.52
2024-03-09T01:08:09.684Z,83.83
2024-03-09T01:09:09.630Z,83.52
2024-03-09T01:10:09.636Z,84.04
2024-03-09T01:11:09.721Z,83.73
2024-03-09T01:12:09.618Z,84.14
2024-03-09T01:13:09.583Z,83.94
2024-03-09T01:14:09.600Z,83.83
2024-03-09T01:15:09.557Z,83.76
2024-03-09T01:16:09.555Z,83.83
2024-03-09T01:17:09.564Z,83.73
2024-03-09T01:18:09.581Z,83.97
2024-03-09T01:19:09.487Z,84.60
2024-03-09T01:20:09.840Z,84.60
2024-03-09T01:21:09.471Z,84.60
2024-03-09T01:22:09.445Z,84.39
2024-03-09T01:23:09.519Z,84.70
2024-03-09T01:24:09.418Z,84.18
2024-03-09T01:25:09.405Z,84.39
2024-03-09T01:26:09.430Z,84.35
2024-03-09T01:27:09.400Z,84.81
2024-03-09T01:28:09.356Z,84.60
2024-03-09T01:29:09.377Z,84.81
2024-03-09T01:30:09.331Z,84.50
2024-03-09T01:31:09.315Z,84.60
2024-03-09T01:32:09.335Z,85.12
2024-03-09T01:33:09.470Z,85.02
2024-03-09T01:34:09.273Z,85.33
2024-03-09T01:35:09.421Z,85.33
2024-03-09T01:36:11.674Z,85.02
2024-03-09T01:37:09.237Z,85.02
2024-03-09T01:38:09.305Z,84.70
2024-03-09T01:39:09.201Z,85.12
2024-03-09T01:40:09.186Z,85.16
2024-03-09T01:41:09.242Z,84.95
2024-03-09T01:42:09.159Z,85.58
2024-03-09T01:43:09.153Z,85.47
2024-03-09T01:44:09.204Z,85.47
2024-03-09T01:45:09.150Z,85.68
2024-03-09T01:46:09.099Z,85.78
2024-03-09T01:47:09.110Z,85.89
2024-03-09T01:48:09.088Z,86.20
2024-03-09T01:49:09.056Z,85.99
2024-03-09T01:50:09.161Z,85.99
2024-03-09T01:51:09.023Z,86.10
2024-03-09T01:52:09.022Z,85.78
2024-03-09T01:53:09.064Z,86.10
2024-03-09T01:54:08.981Z,86.10
2024-03-09T01:55:08.966Z,86.20
2024-03-09T01:56:09.026Z,85.89
2024-03-09T01:57:08.983Z,85.78
2024-03-09T01:58:08.934Z,86.30
2024-03-09T01:59:08.935Z,86.24
2024-03-09T02:00:08.907Z,86.03
2024-03-09T02:01:08.897Z,86.03
2024-03-09T02:02:08.918Z,86.45
2024-03-09T02:03:08.854Z,86.20
2024-03-09T02:04:08.839Z,86.24
2024-03-09T02:05:08.914Z,86.24
2024-03-09T02:06:08.819Z,86.24
2024-03-09T02:07:08.794Z,86.55
2024-03-09T02:08:08.840Z,86.35
2024-03-09T02:09:08.775Z,86.45
2024-03-09T02:10:08.759Z,86.24
2024-03-09T02:11:08.862Z,86.35
2024-03-09T02:12:08.770Z,86.35
2024-03-09T02:13:08.737Z,86.35
2024-03-09T02:14:08.744Z,86.55
2024-03-09T02:15:08.680Z,86.45
2024-03-09T02:16:08.668Z,86.35
2024-03-09T02:17:08.760Z,86.55
2024-03-09T02:18:08.661Z,86.24
2024-03-09T02:19:08.619Z,86.87
2024-03-09T02:20:08.641Z,87.01
2024-03-09T02:21:08.599Z,86.87
2024-03-09T02:22:08.583Z,86.97
2024-03-09T02:23:08.605Z,87.07
2024-03-09T02:24:08.549Z,86.97
2024-03-09T02:25:08.547Z,86.76
2024-03-09T02:26:08.559Z,86.66
2024-03-09T02:27:08.556Z,86.76
2024-03-09T02:28:08.502Z,86.76
2024-03-09T02:29:08.580Z,86.76
2024-03-09T02:30:08.476Z,86.76
2024-03-09T02:31:08.460Z,86.76
2024-03-09T02:32:08.891Z,86.76
2024-03-09T02:33:08.462Z,86.76
2024-03-09T02:34:08.406Z,86.87
2024-03-09T02:35:08.454Z,86.87
2024-03-09T02:36:08.375Z,86.87
2024-03-09T02:37:08.357Z,87.18
2024-03-09T02:38:08.375Z,87.43
2024-03-09T02:39:08.339Z,87.81
2024-03-09T02:40:08.328Z,87.91
2024-03-09T02:41:08.452Z,86.97
2024-03-09T02:42:08.296Z,87.81
2024-03-09T02:43:08.345Z,87.39
2024-03-09T02:44:08.316Z,87.70
2024-03-09T02:45:08.250Z,87.70
2024-03-09T02:46:08.230Z,87.70
2024-03-09T02:47:08.305Z,88.12
2024-03-09T02:48:08.239Z,88.01
2024-03-09T02:49:08.204Z,87.91
2024-03-09T02:50:08.267Z,87.91
2024-03-09T02:51:08.155Z,88.01
2024-03-09T02:52:08.147Z,88.26
2024-03-09T02:53:08.181Z,88.53
2024-03-09T02:54:08.105Z,88.16
2024-03-09T02:55:08.101Z,88.57
2024-03-09T02:56:08.165Z,88.57
2024-03-09T02:57:08.080Z,88.64
2024-03-09T02:58:08.056Z,88.57
2024-03-09T02:59:08.108Z,88.06
2024-03-09T03:00:08.024Z,88.75
2024-03-09T03:01:08.022Z,88.75
2024-03-09T03:02:08.029Z,88.64
2024-03-09T03:03:07.988Z,88.78
2024-03-09T03:04:07.965Z,88.68
2024-03-09T03:05:08.035Z,88.57
2024-03-09T03:06:07.942Z,88.68
2024-03-09T03:07:07.923Z,88.16
2024-03-09T03:08:07.964Z,88.37
2024-03-09T03:09:07.890Z,88.47
2024-03-09T03:10:07.875Z,88.37
2024-03-09T03:11:07.908Z,88.06
2024-03-09T03:12:07.867Z,88.26
2024-03-09T03:13:07.846Z,89.31
2024-03-09T03:14:07.926Z,89.41
2024-03-09T03:15:07.802Z,89.20
2024-03-09T03:16:07.802Z,89.31
2024-03-09T03:17:07.890Z,89.20
2024-03-09T03:18:07.833Z,89.31
2024-03-09T03:19:08.109Z,89.62
2024-03-09T03:20:07.761Z,88.57
2024-03-09T03:21:07.727Z,88.89
2024-03-09T03:22:07.699Z,89.10
2024-03-09T03:23:07.745Z,88.57
2024-03-09T03:24:07.669Z,88.89
2024-03-09T03:25:07.657Z,89.72
2024-03-09T03:26:10.448Z,88.78
2024-03-09T03:27:07.622Z,89.10
2024-03-09T03:28:07.609Z,89.10
2024-03-09T03:29:07.752Z,89.45
2024-03-09T03:30:07.584Z,89.41
2024-03-09T03:31:07.581Z,89.72
2024-03-09T03:32:07.585Z,89.97
2024-03-09T03:33:07.757Z,89.31
2024-03-09T03:34:07.518Z,89.56
2024-03-09T03:35:07.548Z,89.62
2024-03-09T03:36:07.513Z,89.56
2024-03-09T03:37:07.484Z,89.83
2024-03-09T03:38:07.863Z,89.51
2024-03-09T03:39:07.444Z,89.56
2024-03-09T03:40:07.456Z,89.45
2024-03-09T03:41:07.601Z,89.51
2024-03-09T03:42:07.402Z,89.76
2024-03-09T03:43:07.399Z,89.45
2024-03-09T03:44:07.517Z,89.41
2024-03-09T03:45:07.363Z,89.97
2024-03-09T03:46:07.352Z,89.66
2024-03-09T03:47:07.351Z,89.56
2024-03-09T03:48:07.352Z,89.83
2024-03-09T03:49:07.306Z,89.24
2024-03-09T03:50:07.305Z,89.51
2024-03-09T03:51:07.274Z,89.41
2024-03-09T03:52:07.282Z,89.51
2024-03-09T03:53:07.372Z,89.76
2024-03-09T03:54:07.220Z,89.93
2024-03-09T03:55:07.266Z,89.93
2024-03-09T03:56:07.275Z,89.87
2024-03-09T03:57:07.175Z,90.18
2024-03-09T03:58:07.166Z,90.08
2024-03-09T03:59:07.225Z,90.28
2024-03-09T04:00:07.147Z,90.28
2024-03-09T04:01:07.355Z,90.60
2024-03-09T04:02:07.127Z,90.39
2024-03-09T04:03:07.088Z,90.14
2024-03-09T04:04:07.082Z,90.50
2024-03-09T04:05:07.153Z,90.14
2024-03-09T04:06:07.157Z,89.97
2024-03-09T04:07:14.223Z,90.18
2024-03-09T04:09:00.159Z,90.81
2024-03-09T04:10:00.142Z,90.60
2024-03-09T04:11:53.099Z,90.66
2024-03-09T04:12:52.992Z,90.14
2024-03-09T04:14:46.075Z,90.28
2024-03-09T04:15:46.053Z,90.28
2024-03-09T04:17:39.049Z,90.45
2024-03-09T04:18:38.973Z,90.39
2024-03-09T04:20:42.993Z,90.60
2024-03-09T04:21:42.966Z,90.81
2024-03-09T04:23:36.113Z,90.91
2024-03-09T04:24:36.090Z,90.81
2024-03-09T04:26:29.196Z,90.70
2024-03-09T04:27:29.161Z,91.02
2024-03-09T04:28:29.633Z,91.02
2024-03-09T04:29:29.123Z,91.22
2024-03-09T04:30:29.118Z,91.02
2024-03-09T04:31:29.122Z,91.02
2024-03-09T04:32:29.123Z,90.81
2024-03-09T04:33:30.305Z,91.02
2024-03-09T04:34:29.076Z,91.12
2024-03-09T04:35:29.031Z,91.12
2024-03-09T04:36:29.020Z,91.12
2024-03-09T04:37:29.131Z,91.12
2024-03-09T04:38:29.001Z,91.12
2024-03-09T04:39:28.976Z,91.02
2024-03-09T04:40:29.025Z,91.22
2024-03-09T04:41:28.949Z,91.02
2024-03-09T04:42:28.927Z,91.02
2024-03-09T04:43:28.971Z,91.12
2024-03-09T04:44:30.993Z,91.12
2024-03-09T04:45:28.894Z,91.12
2024-03-09T04:46:28.880Z,91.54
2024-03-09T04:47:28.863Z,91.22
2024-03-09T04:48:28.836Z,91.43
2024-03-09T04:49:28.882Z,91.22
2024-03-09T04:50:28.811Z,91.33
2024-03-09T04:51:28.811Z,91.33
2024-03-09T04:52:28.798Z,91.22
2024-03-09T04:53:28.758Z,91.64
2024-03-09T04:54:28.748Z,91.54
2024-03-09T04:55:28.848Z,91.75
2024-03-09T04:56:28.735Z,91.54
2024-03-09T04:57:28.700Z,91.64
2024-03-09T04:58:28.832Z,91.85
2024-03-09T04:59:28.669Z,91.85
2024-03-09T05:00:28.663Z,92.16
2024-03-09T05:01:28.690Z,92.06
2024-03-09T05:02:28.633Z,91.75
2024-03-09T05:03:28.607Z,91.64
2024-03-09T05:04:28.640Z,92.06
2024-03-09T05:05:28.605Z,91.96
2024-03-09T05:06:28.567Z,91.96
2024-03-09T05:07:28.586Z,92.16
2024-03-09T05:08:28.537Z,92.16
2024-03-09T05:09:28.522Z,92.27
2024-03-09T05:10:28.519Z,92.16
2024-03-09T05:11:28.583Z,92.06
2024-03-09T05:12:28.487Z,92.10
2024-03-09T05:13:28.573Z,92.41
2024-03-09T05:14:28.451Z,92.52
2024-03-09T05:15:28.434Z,92.41
2024-03-09T05:16:29.959Z,92.31
2024-03-09T05:17:28.523Z,92.21
2024-03-09T05:18:28.460Z,92.27
2024-03-09T05:19:28.399Z,92.47
2024-03-09T05:20:28.355Z,91.96
2024-03-09T05:21:28.347Z,92.37
2024-03-09T05:22:28.338Z,92.37
2024-03-09T05:23:28.379Z,92.47
2024-03-09T05:24:28.290Z,92.47
2024-03-09T05:25:28.547Z,92.16
2024-03-09T05:26:28.273Z,92.06
2024-03-09T05:27:28.249Z,91.75
2024-03-09T05:28:28.264Z,91.85
2024-03-09T05:29:28.218Z,91.96
2024-03-09T05:30:28.211Z,92.02
2024-03-09T05:31:28.359Z,92.37
2024-03-09T05:32:28.226Z,92.37
2024-03-09T05:33:28.157Z,92.16
2024-03-09T05:34:28.295Z,92.16
2024-03-09T05:35:28.130Z,92.06
2024-03-09T05:36:28.248Z,92.02
2024-03-09T05:37:28.309Z,92.47
2024-03-09T05:38:28.174Z,92.27
2024-03-09T05:39:28.060Z,92.58
2024-03-09T05:40:28.232Z,92.37
2024-03-09T05:41:28.109Z,92.27
2024-03-09T05:42:28.075Z,92.27
2024-03-09T05:43:28.062Z,92.27
2024-03-09T05:44:28.004Z,92.58
2024-03-09T05:45:27.981Z,92.58
2024-03-09T05:46:28.469Z,92.47
2024-03-09T05:47:27.950Z,92.47
2024-03-09T05:48:27.940Z,92.58
2024-03-09T05:49:27.940Z,92.47
2024-03-09T05:50:27.894Z,92.27
2024-03-09T05:51:27.885Z,92.47
2024-03-09T05:52:27.895Z,92.47
2024-03-09T05:53:27.905Z,92.58
2024-03-09T05:54:27.835Z,92.27
2024-03-09T05:55:27.855Z,92.47
2024-03-09T05:56:27.806Z,92.27
2024-03-09T05:57:27.795Z,92.27
2024-03-09T05:58:27.812Z,92.27
2024-03-09T05:59:27.771Z,92.27
2024-03-09T06:00:27.759Z,92.47
2024-03-09T06:01:27.802Z,92.47
2024-03-09T06:02:27.710Z,92.37
2024-03-09T06:03:27.701Z,92.27
2024-03-09T06:04:27.720Z,92.16
2024-03-09T06:05:27.674Z,92.27
2024-03-09T06:06:27.652Z,92.37
2024-03-09T06:07:27.664Z,92.27
2024-03-09T06:08:27.621Z,92.69
2024-03-09T06:09:27.617Z,92.33
2024-03-09T06:10:27.984Z,91.81
2024-03-09T06:11:27.612Z,91.46
2024-03-09T06:12:27.604Z,90.93
2024-03-09T06:13:27.638Z,90.31
2024-03-09T06:14:27.529Z,90.10
2024-03-09T06:15:27.513Z,89.78
2024-03-09T06:16:27.544Z,89.12
2024-03-09T06:17:27.490Z,89.54
2024-03-09T06:18:27.474Z,89.75
2024-03-09T06:19:27.493Z,89.95
2024-03-09T06:20:27.448Z,89.60
2024-03-09T06:21:27.440Z,89.29
2024-03-09T06:22:27.408Z,89.08
2024-03-09T06:23:27.399Z,88.56
2024-03-09T06:24:27.382Z,89.32
2024-03-09T06:25:27.957Z,88.91
2024-03-09T06:26:27.353Z,89.54
2024-03-09T06:27:27.341Z,89.54
2024-03-09T06:28:27.377Z,89.89
2024-03-09T06:29:27.310Z,89.95
2024-03-09T06:30:30.794Z,90.00
2024-03-09T06:31:27.280Z,90.41
2024-03-09T06:32:27.290Z,90.41
2024-03-09T06:33:27.245Z,90.41
2024-03-09T06:34:27.238Z,89.95
2024-03-09T06:35:27.390Z,89.18
2024-03-09T06:36:27.211Z,88.35
2024-03-09T06:37:27.189Z,89.08
2024-03-09T06:38:27.178Z,89.32
2024-03-09T06:39:27.160Z,90.06
2024-03-09T06:40:27.143Z,90.16
2024-03-09T06:42:27.123Z,90.06
2024-03-09T06:43:27.100Z,89.60
2024-03-09T06:44:27.106Z,89.14
2024-03-09T06:45:27.074Z,88.06
2024-03-09T06:46:27.061Z,86.81
2024-03-09T06:47:27.062Z,86.15
2024-03-09T06:48:27.025Z,86.25
2024-03-09T06:49:27.022Z,86.32
2024-03-09T06:50:27.002Z,85.42
2024-03-09T06:51:26.988Z,86.71
2024-03-09T06:52:26.972Z,87.99
2024-03-09T06:53:27.042Z,89.29
2024-03-09T06:54:26.943Z,89.70
2024-03-09T06:55:27.108Z,89.32
2024-03-09T06:56:26.992Z,89.39
2024-03-09T06:57:27.006Z,89.81
2024-03-09T06:58:26.894Z,89.54
2024-03-09T06:59:26.870Z,89.60
2024-03-09T07:00:26.876Z,89.39
2024-03-09T07:01:26.930Z,89.81
2024-03-09T07:02:26.833Z,89.64
2024-03-09T07:03:26.827Z,90.22
2024-03-09T07:04:26.806Z,89.60
2024-03-09T07:05:26.784Z,90.01
2024-03-09T07:06:26.784Z,89.39
2024-03-09T07:07:26.752Z,89.39
2024-03-09T07:08:26.808Z,89.39
2024-03-09T07:09:26.812Z,89.25
2024-03-09T07:10:26.706Z,89.04
2024-03-09T07:11:26.729Z,89.45
2024-03-09T07:12:26.708Z,88.93
2024-03-09T07:13:26.680Z,89.39
2024-03-09T07:14:26.657Z,89.04
2024-03-09T07:15:26.638Z,89.14
2024-03-09T07:16:26.621Z,88.93
2024-03-09T07:17:26.605Z,89.66
2024-03-09T07:18:26.639Z,88.62
2024-03-09T07:19:26.586Z,88.83
2024-03-09T07:20:26.572Z,89.04
2024-03-09T07:21:26.547Z,89.35
2024-03-09T07:22:26.536Z,89.35
2024-03-09T07:23:26.610Z,89.20
2024-03-09T07:24:26.500Z,88.89
2024-03-09T07:25:27.057Z,87.65
2024-03-09T07:26:26.474Z,88.17
2024-03-09T07:27:26.467Z,88.48
2024-03-09T07:28:26.449Z,88.68
2024-03-09T07:29:26.438Z,88.17
2024-03-09T07:30:26.497Z,87.81
2024-03-09T07:31:26.401Z,88.12
2024-03-09T07:32:26.460Z,88.06
2024-03-09T07:33:26.369Z,88.02
2024-03-09T07:34:26.366Z,88.29
2024-03-09T07:35:26.709Z,87.88
2024-03-09T07:36:26.328Z,87.25
2024-03-09T07:37:26.317Z,87.46
2024-03-09T07:38:26.342Z,86.42
2024-03-09T07:39:26.285Z,86.69
2024-03-09T07:40:26.271Z,86.59
2024-03-09T07:41:26.304Z,86.21
2024-03-09T07:42:26.238Z,86.17
2024-03-09T07:43:26.225Z,86.11
2024-03-09T07:44:26.266Z,86.59
2024-03-09T07:45:26.231Z,86.21
2024-03-09T07:46:26.189Z,86.17
2024-03-09T07:47:26.187Z,86.07
2024-03-09T07:48:26.156Z,85.96
2024-03-09T07:49:26.139Z,85.65
2024-03-09T07:50:26.151Z,86.17
2024-03-09T07:51:26.116Z,86.03
2024-03-09T07:52:26.097Z,86.03
2024-03-09T07:53:26.142Z,85.57
2024-03-09T07:54:26.072Z,84.64
2024-03-09T07:55:26.154Z,84.53
2024-03-09T07:56:26.103Z,84.74
2024-03-09T07:57:26.026Z,85.05
2024-03-09T07:58:27.406Z,84.95
2024-03-09T07:59:25.996Z,84.74
2024-03-09T08:00:25.988Z,84.81
2024-03-09T08:01:25.980Z,84.74
2024-03-09T08:02:26.013Z,83.91
2024-03-09T08:03:25.941Z,84.29
2024-03-09T08:04:26.020Z,84.53
2024-03-09T08:05:25.988Z,84.50
2024-03-09T08:06:25.911Z,84.29
2024-03-09T08:07:25.884Z,84.08
2024-03-09T08:08:26.010Z,83.56
2024-03-09T08:09:25.866Z,83.67
2024-03-09T08:10:25.857Z,83.46
2024-03-09T08:11:25.908Z,84.08
2024-03-09T08:12:25.819Z,83.98
2024-03-09T08:13:25.806Z,83.77
2024-03-09T08:14:25.790Z,84.05
2024-03-09T08:15:25.802Z,83.53
2024-03-09T08:16:25.761Z,83.42
2024-03-09T08:17:25.856Z,83.22
2024-03-09T08:18:25.806Z,82.86
2024-03-09T08:19:25.722Z,82.45
2024-03-09T08:20:25.763Z,82.86
2024-03-09T08:21:25.690Z,82.34
2024-03-09T08:22:25.681Z,82.10
2024-03-09T08:23:25.695Z,81.89
2024-03-09T08:24:25.656Z,81.79
2024-03-09T08:25:25.641Z,81.68
2024-03-09T08:26:25.653Z,81.16
2024-03-09T08:27:25.645Z,81.48
2024-03-09T08:28:25.602Z,81.79
2024-03-09T08:29:25.583Z,80.85
2024-03-09T08:30:25.612Z,81.27
2024-03-09T08:31:25.564Z,81.37
2024-03-09T08:32:25.553Z,81.23
2024-03-09T08:33:25.540Z,80.82
2024-03-09T08:34:25.515Z,81.23
2024-03-09T08:35:25.497Z,80.19
2024-03-09T08:36:25.495Z,80.40
2024-03-09T08:37:25.474Z,80.19
2024-03-09T08:38:25.569Z,81.13
2024-03-09T08:39:25.449Z,80.09
2024-03-09T08:40:25.433Z,80.16
2024-03-09T08:41:25.480Z,79.64
2024-03-09T08:42:25.405Z,79.81
2024-03-09T08:43:25.396Z,79.91
2024-03-09T08:44:25.385Z,79.91
2024-03-09T08:45:25.661Z,79.09
2024-03-09T08:46:25.355Z,79.50
2024-03-09T08:47:25.359Z,79.30
2024-03-09T08:48:25.331Z,79.81
2024-03-09T08:49:25.431Z,79.60
2024-03-09T08:50:25.340Z,79.50
2024-03-09T08:51:25.286Z,79.26
2024-03-09T08:52:25.290Z,80.05
2024-03-09T08:53:25.337Z,78.02
2024-03-09T08:54:25.250Z,78.16
2024-03-09T08:55:25.498Z,78.74
2024-03-09T08:56:25.221Z,78.95
2024-03-09T08:57:25.213Z,79.12
2024-03-09T08:58:25.196Z,78.08
2024-03-09T08:59:25.241Z,77.94
2024-03-09T09:00:25.175Z,78.08
2024-03-09T09:01:25.193Z,77.98
2024-03-09T09:02:25.253Z,77.77
2024-03-09T09:03:25.147Z,78.05
2024-03-09T09:04:25.131Z,77.56
2024-03-09T09:05:25.116Z,77.94
2024-03-09T09:06:25.093Z,76.60
2024-03-09T09:07:25.094Z,77.87
2024-03-09T09:08:25.148Z,78.08
2024-03-09T09:09:25.066Z,77.64
2024-03-09T09:10:25.051Z,76.60
2024-03-09T09:11:25.124Z,76.56
2024-03-09T09:12:25.014Z,76.67
2024-03-09T09:13:25.010Z,76.12
2024-03-09T09:14:24.993Z,75.70
2024-03-09T09:15:24.976Z,75.60
2024-03-09T09:16:24.962Z,75.39
2024-03-09T09:17:24.959Z,75.81
2024-03-09T09:18:25.094Z,75.70
2024-03-09T09:19:24.924Z,74.88
2024-03-09T09:20:24.997Z,75.09
2024-03-09T09:21:24.915Z,75.39
2024-03-09T09:22:24.898Z,75.09
2024-03-09T09:23:24.930Z,75.57
2024-03-09T09:24:24.865Z,74.53
2024-03-09T09:25:28.340Z,75.26
2024-03-09T09:26:24.905Z,75.46
2024-03-09T09:27:24.827Z,75.36
2024-03-09T09:28:24.812Z,74.60
2024-03-09T09:29:24.805Z,74.81
2024-03-09T09:30:24.783Z,74.71
2024-03-09T09:31:24.781Z,74.05
2024-03-09T09:32:25.236Z,74.29
2024-03-09T09:33:24.813Z,74.08
2024-03-09T09:34:24.741Z,74.08
2024-03-09T09:35:24.738Z,74.40
2024-03-09T09:36:24.757Z,74.19
2024-03-09T09:37:24.708Z,74.71
2024-03-09T09:38:24.744Z,74.71
2024-03-09T09:39:24.752Z,74.46
2024-03-09T09:40:24.676Z,73.85
2024-03-09T09:41:24.649Z,74.15
2024-03-09T09:42:24.655Z,73.40
2024-03-09T09:43:24.632Z,73.60
2024-03-09T09:44:24.690Z,72.27
2024-03-09T09:45:24.704Z,72.67
2024-03-09T09:46:24.634Z,72.58
2024-03-09T09:47:24.679Z,73.19
2024-03-09T09:48:24.611Z,73.19
2024-03-09T09:49:24.628Z,73.40
2024-03-09T09:50:24.636Z,72.54
2024-03-09T09:51:24.538Z,72.44
2024-03-09T09:52:24.533Z,72.44
2024-03-09T09:53:24.571Z,72.64
2024-03-09T09:54:24.499Z,72.44
2024-03-09T09:55:24.508Z,72.54
2024-03-09T09:56:24.544Z,72.44
2024-03-09T09:57:24.455Z,72.23
2024-03-09T09:58:24.459Z,71.78
2024-03-09T09:59:24.494Z,71.48
2024-03-09T10:00:25.157Z,71.72
2024-03-09T10:01:24.452Z,71.20
2024-03-09T10:02:24.856Z,72.44
2024-03-09T10:03:24.384Z,72.44
2024-03-09T10:04:24.398Z,71.27
2024-03-09T10:05:24.389Z,71.89
2024-03-09T10:06:24.382Z,71.06
2024-03-09T10:07:24.339Z,70.86
2024-03-09T10:08:24.387Z,71.58
2024-03-09T10:09:24.328Z,71.37
2024-03-09T10:10:24.300Z,71.37
2024-03-09T10:11:24.381Z,70.86
2024-03-09T10:12:24.692Z,71.37
2024-03-09T10:13:24.266Z,71.99
2024-03-09T10:14:24.253Z,71.58
2024-03-09T10:15:24.267Z,71.48
2024-03-09T10:16:24.233Z,70.72
2024-03-09T10:17:24.289Z,71.37
2024-03-09T10:18:24.204Z,70.86
2024-03-09T10:19:24.230Z,70.86
2024-03-09T10:20:24.241Z,70.62
2024-03-09T10:21:24.168Z,71.20
2024-03-09T10:22:24.157Z,69.97
2024-03-09T10:23:24.167Z,69.46
2024-03-09T10:24:24.141Z,69.97
2024-03-09T10:25:24.142Z,70.14
2024-03-09T10:26:24.179Z,70.66
2024-03-09T10:27:24.100Z,69.39
2024-03-09T10:28:24.084Z,69.70
2024-03-09T10:29:24.085Z,69.15
2024-03-09T10:30:24.064Z,69.15
2024-03-09T10:31:24.052Z,67.71
2024-03-09T10:32:24.140Z,67.23
2024-03-09T10:33:24.107Z,67.95
2024-03-09T10:34:24.014Z,68.46
2024-03-09T10:35:24.033Z,68.29
2024-03-09T10:36:23.993Z,68.40
2024-03-09T10:37:23.981Z,68.29
2024-03-09T10:38:24.109Z,68.80
2024-03-09T10:39:23.957Z,68.67
2024-03-09T10:40:23.946Z,68.74
2024-03-09T10:41:24.050Z,67.23
2024-03-09T10:42:23.925Z,67.71
2024-03-09T10:43:23.914Z,67.10
2024-03-09T10:44:23.956Z,67.75
2024-03-09T10:45:26.169Z,67.65
2024-03-09T10:46:23.878Z,67.65
2024-03-09T10:47:23.869Z,67.30
2024-03-09T10:48:23.854Z,67.20
2024-03-09T10:49:23.849Z,67.51
2024-03-09T10:50:23.910Z,67.51
2024-03-09T10:51:25.645Z,67.17
2024-03-09T10:52:23.810Z,66.96
2024-03-09T10:53:23.801Z,67.17
2024-03-09T10:54:23.792Z,67.07
2024-03-09T10:55:23.783Z,67.17
2024-03-09T10:56:23.822Z,67.17
2024-03-09T10:57:23.793Z,67.71
2024-03-09T10:58:23.751Z,66.58
2024-03-09T10:59:23.753Z,66.48
2024-03-09T11:00:23.724Z,67.82
2024-03-09T11:01:24.338Z,66.66
2024-03-09T11:02:23.716Z,64.91
2024-03-09T11:03:24.672Z,65.83
2024-03-09T11:04:23.678Z,66.45
2024-03-09T11:05:23.703Z,65.97
2024-03-09T11:06:24.005Z,67.00
2024-03-09T11:07:23.645Z,67.38
2024-03-09T11:08:23.746Z,66.14
2024-03-09T11:09:23.621Z,66.17
2024-03-09T11:10:23.623Z,66.58
2024-03-09T11:11:23.678Z,66.69
2024-03-09T11:12:23.656Z,66.58
2024-03-09T11:13:23.605Z,66.55
2024-03-09T11:14:23.625Z,66.45
2024-03-09T11:15:23.559Z,66.22
2024-03-09T11:16:23.546Z,65.91
2024-03-09T11:17:23.732Z,65.77
2024-03-09T11:18:24.410Z,65.88
2024-03-09T11:19:23.517Z,63.82
2024-03-09T11:20:23.545Z,65.19
2024-03-09T11:21:23.496Z,65.36
2024-03-09T11:22:23.478Z,65.12
2024-03-09T11:23:23.576Z,65.74
2024-03-09T11:24:23.454Z,65.12
2024-03-09T11:25:23.456Z,64.69
2024-03-09T11:26:23.470Z,65.00
2024-03-09T11:27:23.421Z,63.76
2024-03-09T11:28:23.413Z,62.92
2024-03-09T11:29:23.484Z,63.25
2024-03-09T11:30:23.392Z,63.35
2024-03-09T11:31:23.382Z,64.10
2024-03-09T11:32:23.418Z,65.00
2024-03-09T11:33:23.358Z,64.69
2024-03-09T11:34:23.362Z,64.59
2024-03-09T11:35:23.403Z,65.27
2024-03-09T11:36:23.330Z,64.56
2024-03-09T11:37:23.317Z,63.25
2024-03-09T11:38:23.324Z,63.66
2024-03-09T11:39:23.384Z,63.46
2024-03-09T11:40:23.290Z,63.59
2024-03-09T11:41:23.273Z,63.10
2024-03-09T11:42:23.267Z,64.10
2024-03-09T11:43:23.252Z,63.59
2024-03-09T11:44:23.292Z,63.46
2024-03-09T11:45:24.909Z,63.35
2024-03-09T11:46:23.228Z,63.46
2024-03-09T11:47:23.385Z,63.53
2024-03-09T11:48:23.263Z,62.92
2024-03-09T11:49:23.186Z,63.12
2024-03-09T11:50:23.275Z,62.61
2024-03-09T11:51:23.171Z,62.19
2024-03-09T11:52:23.157Z,63.32
2024-03-09T11:53:23.156Z,63.40
2024-03-09T11:54:23.137Z,62.07
2024-03-09T11:55:23.127Z,62.07
2024-03-09T11:56:23.186Z,62.07
2024-03-09T11:57:23.112Z,63.20
2024-03-09T11:58:23.121Z,61.96
2024-03-09T11:59:23.111Z,63.64
2024-03-09T12:00:23.097Z,63.70
2024-03-09T12:01:23.103Z,61.66
2024-03-09T12:02:23.141Z,62.27
2024-03-09T12:03:23.048Z,61.96
2024-03-09T12:04:23.039Z,61.27
2024-03-09T12:05:23.091Z,63.02
2024-03-09T12:06:23.017Z,62.10
2024-03-09T12:07:23.012Z,63.32
2024-03-09T12:08:23.034Z,63.02
2024-03-09T12:09:23.022Z,63.22
2024-03-09T12:10:22.984Z,63.53
2024-03-09T12:11:23.062Z,63.43
2024-03-09T12:12:22.966Z,63.64
2024-03-09T12:13:22.952Z,63.02
2024-03-09T12:14:22.972Z,62.61
2024-03-09T12:15:23.746Z,63.35
2024-03-09T12:16:22.914Z,63.46
2024-03-09T12:17:23.110Z,63.25
2024-03-09T12:18:22.908Z,64.59
2024-03-09T12:19:22.896Z,63.97
2024-03-09T12:20:23.024Z,64.79
2024-03-09T12:21:22.868Z,64.79
2024-03-09T12:22:22.859Z,65.03
2024-03-09T12:23:22.878Z,65.41
2024-03-09T12:24:22.837Z,65.12
2024-03-09T12:25:22.859Z,65.03
2024-03-09T12:26:22.874Z,65.54
2024-03-09T12:27:22.820Z,66.39
2024-03-09T12:28:22.806Z,66.46
2024-03-09T12:29:22.912Z,65.77
2024-03-09T12:30:22.782Z,66.70
2024-03-09T12:31:22.766Z,66.08
2024-03-09T12:32:22.805Z,66.39
2024-03-09T12:33:22.895Z,66.56
2024-03-09T12:34:22.732Z,66.80
2024-03-09T12:35:22.750Z,67.21
2024-03-09T12:36:22.710Z,67.32
2024-03-09T12:37:22.702Z,67.21
2024-03-09T12:38:22.730Z,66.05
2024-03-09T12:39:22.732Z,66.46
2024-03-09T12:40:22.675Z,66.36
2024-03-09T12:41:22.691Z,67.49
2024-03-09T12:42:22.652Z,67.69
2024-03-09T12:43:22.639Z,67.28
2024-03-09T12:44:23.238Z,66.97
2024-03-09T12:45:22.623Z,65.84
2024-03-09T12:46:22.617Z,65.74
2024-03-09T12:47:22.709Z,66.16
2024-03-09T12:48:22.591Z,66.36
2024-03-09T12:49:22.614Z,66.97
2024-03-09T12:50:22.607Z,65.95
2024-03-09T12:51:22.561Z,66.67
2024-03-09T12:52:22.553Z,66.46
2024-03-09T12:53:22.611Z,67.28
2024-03-09T12:54:22.533Z,67.08
2024-03-09T12:55:22.523Z,65.23
2024-03-09T12:56:22.570Z,65.51
2024-03-09T12:57:22.499Z,64.69
2024-03-09T12:58:22.492Z,64.61
2024-03-09T12:59:23.444Z,63.59